Time;durP1;ratioP1;P1;durP2;ratioP2;P2;SDS_P1;SDS_P2;PMS_P1;PMS_P2;Temp;Humidity;BMP_temperature;BMP_pressure;BME280_temperature;BME280_humidity;BME280_pressure;Samples;Min_cycle;Max_cycle;Signal;HPM_P1;HPM_P2
2022/04/04 00:01:28;;;;;;;11.07;9.87;;;4.90;99.90;;;;;;5011408;28;20717;-71
2022/04/04 00:03:54;;;;;;;10.40;9.40;;;4.80;99.90;;;;;;5012602;28;20206;-70
2022/04/04 00:06:20;;;;;;;9.73;8.83;;;4.70;99.90;;;;;;5010654;28;20300;-70
2022/04/04 00:08:46;;;;;;;9.87;8.97;;;4.70;99.90;;;;;;5012484;28;20294;-71
2022/04/04 00:11:11;;;;;;;10.53;9.43;;;4.60;99.90;;;;;;5011335;28;20463;-70
2022/04/04 00:13:37;;;;;;;10.30;9.10;;;4.60;99.90;;;;;;5013681;28;20658;-71
2022/04/04 00:16:03;;;;;;;9.73;8.77;;;4.50;99.90;;;;;;5009629;28;20451;-71
2022/04/04 00:18:28;;;;;;;9.70;8.87;;;4.60;99.90;;;;;;5013080;28;20209;-70
2022/04/04 00:20:54;;;;;;;10.47;9.53;;;4.50;99.90;;;;;;5011902;28;20194;-71
2022/04/04 00:23:19;;;;;;;10.10;9.07;;;4.60;99.90;;;;;;5012817;28;20208;-70
2022/04/04 00:25:47;;;;;;;12.70;9.73;;;4.70;99.90;;;;;;5012891;28;20694;-71
2022/04/04 00:28:14;;;;;;;10.97;8.97;;;4.60;99.90;;;;;;5012216;28;20586;-71
2022/04/04 00:30:42;;;;;;;9.17;8.27;;;4.60;99.90;;;;;;5012868;28;20463;-71
2022/04/04 00:33:07;;;;;;;11.30;10.00;;;4.60;99.90;;;;;;5012846;28;20488;-71
2022/04/04 00:35:33;;;;;;;10.63;9.57;;;4.60;99.90;;;;;;5013704;28;20480;-71
2022/04/04 00:38:01;;;;;;;9.57;8.67;;;4.60;99.90;;;;;;5012853;28;20225;-71
2022/04/04 00:40:26;;;;;;;11.23;8.90;;;4.60;99.90;;;;;;5013922;28;20449;-72
2022/04/04 00:42:53;;;;;;;11.80;10.60;;;4.60;99.90;;;;;;5013528;28;20452;-71
2022/04/04 00:45:19;;;;;;;10.33;9.30;;;4.60;99.90;;;;;;5013397;28;20245;-71
2022/04/04 00:47:45;;;;;;;11.70;9.73;;;4.50;99.90;;;;;;5012217;28;20463;-71
2022/04/04 00:50:11;;;;;;;10.43;9.33;;;4.50;99.90;;;;;;5010443;28;20435;-71
2022/04/04 00:52:37;;;;;;;11.57;9.50;;;4.60;99.90;;;;;;5012374;28;20211;-71
2022/04/04 00:55:03;;;;;;;10.80;9.70;;;4.50;99.90;;;;;;5012492;28;20521;-71
2022/04/04 00:57:29;;;;;;;11.10;9.90;;;4.60;99.90;;;;;;5012029;28;20477;-71
2022/04/04 00:59:55;;;;;;;10.87;9.77;;;4.50;99.90;;;;;;5010936;28;20450;-70
2022/04/04 01:02:20;;;;;;;11.90;10.70;;;4.40;99.90;;;;;;5007779;28;20581;-71
2022/04/04 01:04:46;;;;;;;12.03;10.83;;;4.50;99.90;;;;;;5012599;28;20210;-71
2022/04/04 01:07:12;;;;;;;11.77;9.57;;;4.40;99.90;;;;;;5011902;28;20214;-71
2022/04/04 01:09:37;;;;;;;11.07;9.60;;;4.40;99.90;;;;;;5012468;28;20292;-72
2022/04/04 01:12:11;;;;;;;13.40;9.60;;;4.30;99.90;;;;;;5013381;28;20477;-72
2022/04/04 01:14:41;;;;;;;14.70;10.00;;;4.30;99.90;;;;;;5013147;28;20253;-71
2022/04/04 01:17:08;;;;;;;9.43;8.40;;;4.30;99.90;;;;;;5013258;28;20491;-71
2022/04/04 01:19:34;;;;;;;10.87;8.90;;;4.40;99.90;;;;;;5012904;28;20436;-71
2022/04/04 01:22:04;;;;;;;9.67;8.77;;;4.30;99.90;;;;;;5012692;28;20453;-70
2022/04/04 01:24:29;;;;;;;11.57;8.53;;;4.30;99.90;;;;;;4993559;28;20410;-71
2022/04/04 01:26:55;;;;;;;10.67;8.40;;;4.30;99.90;;;;;;4993588;28;20449;-71
2022/04/04 01:29:21;;;;;;;10.63;8.67;;;4.40;99.90;;;;;;5001153;28;20203;-71
2022/04/04 01:31:48;;;;;;;9.43;8.47;;;4.40;99.90;;;;;;5012606;28;20278;-71
2022/04/04 01:34:14;;;;;;;10.53;9.43;;;4.30;99.90;;;;;;5013144;28;20425;-71
2022/04/04 01:36:39;;;;;;;11.57;8.63;;;4.30;99.90;;;;;;5011724;28;20436;-71
2022/04/04 01:39:05;;;;;;;12.43;9.60;;;4.30;99.90;;;;;;5013063;28;20414;-71
2022/04/04 01:41:31;;;;;;;9.27;8.40;;;4.30;99.90;;;;;;5012444;28;20183;-71
2022/04/04 01:43:56;;;;;;;10.50;8.50;;;4.30;99.90;;;;;;5012473;28;20182;-71
2022/04/04 01:46:26;;;;;;;10.37;8.93;;;4.30;99.90;;;;;;5012781;28;20178;-71
2022/04/04 01:48:53;;;;;;;11.33;9.33;;;4.30;99.90;;;;;;5011367;28;20471;-71
2022/04/04 01:51:18;;;;;;;11.03;9.47;;;4.30;99.90;;;;;;5012261;28;20488;-71
2022/04/04 01:53:45;;;;;;;9.80;8.33;;;4.30;99.90;;;;;;5012358;28;20424;-71
2022/04/04 01:56:11;;;;;;;8.23;7.40;;;4.30;99.90;;;;;;5012216;28;20258;-71
2022/04/04 01:58:37;;;;;;;8.57;7.67;;;4.30;99.90;;;;;;5012592;28;20441;-71
2022/04/04 02:01:15;;;;;;;9.57;7.83;;;4.30;99.90;;;;;;5010913;28;20475;-71
2022/04/04 02:03:43;;;;;;;13.80;8.23;;;4.20;99.90;;;;;;5012246;28;20469;-71
2022/04/04 02:06:08;;;;;;;9.33;8.27;;;4.20;99.90;;;;;;5012180;28;20778;-71
2022/04/04 02:08:34;;;;;;;9.43;7.30;;;4.20;99.90;;;;;;5012233;28;20556;-71
2022/04/04 02:11:02;;;;;;;11.30;7.43;;;4.20;99.90;;;;;;5010846;28;20184;-71
2022/04/04 02:13:28;;;;;;;9.20;7.07;;;4.20;99.90;;;;;;5010522;28;20190;-71
2022/04/04 02:15:56;;;;;;;12.40;11.10;;;4.30;99.90;;;;;;5012439;28;20506;-71
2022/04/04 02:18:21;;;;;;;8.97;7.50;;;4.20;99.90;;;;;;5011983;28;20429;-71
2022/04/04 02:20:47;;;;;;;9.43;7.30;;;4.10;99.90;;;;;;5012050;28;20474;-71
2022/04/04 02:23:17;;;;;;;9.20;7.70;;;4.20;99.90;;;;;;5011768;28;20510;-71
2022/04/04 02:25:44;;;;;;;9.10;7.97;;;4.20;99.90;;;;;;5012273;28;20406;-71
2022/04/04 02:28:09;;;;;;;8.50;7.57;;;4.10;99.90;;;;;;5012293;28;20823;-71
2022/04/04 02:30:35;;;;;;;8.10;7.27;;;4.10;99.90;;;;;;5012135;28;20416;-70
2022/04/04 02:33:01;;;;;;;8.70;7.73;;;4.00;99.90;;;;;;5011366;28;20183;-71
2022/04/04 02:35:27;;;;;;;10.47;8.43;;;4.00;99.90;;;;;;5010500;28;20565;-71
2022/04/04 02:37:53;;;;;;;9.50;7.80;;;4.00;99.90;;;;;;5011785;28;20672;-71
2022/04/04 02:40:18;;;;;;;12.20;8.40;;;4.00;99.90;;;;;;5011598;28;20411;-71
2022/04/04 02:42:44;;;;;;;9.97;8.70;;;3.90;99.90;;;;;;5012141;28;20591;-71
2022/04/04 02:45:10;;;;;;;10.20;7.73;;;3.90;99.90;;;;;;5012466;28;20173;-71
2022/04/04 02:47:35;;;;;;;8.60;7.60;;;4.00;99.90;;;;;;5011587;28;20601;-71
2022/04/04 02:50:01;;;;;;;10.13;7.40;;;4.00;99.90;;;;;;5010608;28;20244;-71
2022/04/04 02:52:27;;;;;;;10.17;7.20;;;4.00;99.90;;;;;;5011836;28;20180;-71
2022/04/04 02:54:53;;;;;;;9.90;7.70;;;4.10;99.90;;;;;;5012197;28;20442;-71
2022/04/04 02:57:19;;;;;;;9.77;7.73;;;4.10;99.90;;;;;;5011638;28;20444;-71
2022/04/04 02:59:45;;;;;;;8.77;7.30;;;4.20;99.90;;;;;;5045674;23;20697;-69
2022/04/04 03:02:11;;;;;;;8.00;7.10;;;4.30;99.90;;;;;;5049904;28;20544;-67
2022/04/04 03:04:40;;;;;;;7.97;7.17;;;4.20;99.90;;;;;;5051097;28;20970;-68
2022/04/04 03:07:09;;;;;;;15.33;7.50;;;4.10;99.90;;;;;;5051241;28;20411;-68
2022/04/04 03:09:35;;;;;;;12.63;7.57;;;4.20;99.90;;;;;;5040133;28;20460;-68
2022/04/04 03:12:01;;;;;;;8.30;6.87;;;4.20;99.90;;;;;;5031294;28;20428;-69
2022/04/04 03:14:28;;;;;;;9.47;7.23;;;4.30;99.90;;;;;;5032057;28;20413;-68
2022/04/04 03:16:54;;;;;;;9.50;7.27;;;4.30;99.90;;;;;;5031601;28;20416;-67
2022/04/04 03:19:20;;;;;;;7.87;7.03;;;4.30;99.90;;;;;;5030625;28;20509;-68
2022/04/04 03:21:45;;;;;;;12.33;7.30;;;4.30;99.90;;;;;;5032000;28;20410;-69
2022/04/04 03:24:12;;;;;;;9.57;7.90;;;4.20;99.90;;;;;;5013882;28;20653;-68
2022/04/04 03:26:37;;;;;;;10.10;8.20;;;4.30;99.90;;;;;;5014039;28;20520;-68
2022/04/04 03:29:03;;;;;;;11.83;8.50;;;4.30;99.90;;;;;;5031130;28;20465;-68
2022/04/04 03:31:28;;;;;;;12.57;9.03;;;4.30;99.90;;;;;;5013417;28;20659;-68
2022/04/04 03:33:54;;;;;;;12.13;10.00;;;4.30;99.90;;;;;;5013723;28;20265;-68
2022/04/04 03:36:20;;;;;;;9.43;7.77;;;4.30;99.90;;;;;;5030897;28;20170;-69
2022/04/04 03:38:46;;;;;;;13.10;9.17;;;4.30;99.90;;;;;;5012774;28;20213;-68
2022/04/04 03:41:11;;;;;;;11.47;8.90;;;4.40;99.90;;;;;;5012697;28;20457;-68
2022/04/04 03:43:37;;;;;;;12.30;9.90;;;4.40;99.90;;;;;;5032394;28;20178;-68
2022/04/04 03:46:03;;;;;;;11.30;9.50;;;4.30;99.90;;;;;;5039995;28;20516;-68
2022/04/04 03:48:28;;;;;;;11.67;9.87;;;4.30;99.90;;;;;;5034684;28;20219;-68
2022/04/04 03:50:54;;;;;;;11.37;9.53;;;4.30;99.90;;;;;;5034450;28;20183;-67
2022/04/04 03:53:21;;;;;;;13.10;9.80;;;4.30;99.90;;;;;;5016965;28;20173;-68
2022/04/04 03:55:47;;;;;;;13.70;9.50;;;4.30;99.90;;;;;;5034767;28;20397;-68
2022/04/04 03:58:12;;;;;;;12.60;9.87;;;4.40;99.90;;;;;;5034589;28;20440;-68
2022/04/04 04:00:39;;;;;;;13.47;10.73;;;4.30;99.90;;;;;;5035990;28;20223;-68
2022/04/04 04:03:05;;;;;;;13.57;10.60;;;4.40;99.90;;;;;;5033841;28;20177;-68
2022/04/04 04:05:31;;;;;;;11.27;10.17;;;4.30;99.90;;;;;;5028170;28;20435;-67
2022/04/04 04:07:56;;;;;;;12.17;10.43;;;4.30;99.90;;;;;;5026473;28;20445;-67
2022/04/04 04:10:22;;;;;;;12.77;10.13;;;4.30;99.90;;;;;;5029561;28;20202;-67
2022/04/04 04:12:49;;;;;;;13.67;11.40;;;4.20;99.90;;;;;;5039582;28;20709;-67
2022/04/04 04:15:21;;;;;;;13.93;10.70;;;4.20;99.90;;;;;;5029482;28;20416;-67
2022/04/04 04:17:46;;;;;;;13.03;11.17;;;4.10;99.90;;;;;;5022886;28;20409;-68
2022/04/04 04:20:26;;;;;;;12.83;10.60;;;4.20;99.90;;;;;;5029629;28;20444;-67
2022/04/04 04:23:10;;;;;;;16.00;12.07;;;4.20;99.90;;;;;;5030013;28;20423;-67
2022/04/04 04:25:37;;;;;;;13.60;11.00;;;4.20;99.90;;;;;;5039895;28;20504;-67
2022/04/04 04:28:05;;;;;;;14.10;11.87;;;4.20;99.90;;;;;;5032029;28;20419;-69
2022/04/04 04:30:31;;;;;;;14.23;11.47;;;4.10;99.90;;;;;;5033694;28;20490;-69
2022/04/04 04:32:57;;;;;;;13.60;10.47;;;4.10;99.90;;;;;;5034248;28;21152;-68
2022/04/04 04:35:23;;;;;;;15.30;12.47;;;4.20;99.90;;;;;;5033061;28;20499;-68
2022/04/04 04:37:50;;;;;;;14.17;11.23;;;4.20;99.90;;;;;;4999728;28;20947;-69
2022/04/04 04:40:17;;;;;;;13.53;11.30;;;4.20;99.90;;;;;;5016388;28;20445;-69
2022/04/04 04:42:44;;;;;;;19.80;12.07;;;4.20;99.90;;;;;;5036019;28;20411;-67
2022/04/04 04:45:10;;;;;;;14.33;12.40;;;4.20;99.90;;;;;;5036680;28;20513;-67
2022/04/04 04:47:35;;;;;;;12.77;11.47;;;4.00;99.90;;;;;;5035020;28;20793;-69
2022/04/04 04:50:04;;;;;;;15.73;10.97;;;4.10;99.90;;;;;;5040716;28;20473;-70
2022/04/04 04:52:30;;;;;;;17.00;11.53;;;4.10;99.90;;;;;;5040455;28;20241;-69
2022/04/04 04:54:56;;;;;;;13.83;11.70;;;4.00;99.90;;;;;;5039160;28;20419;-68
2022/04/04 04:57:22;;;;;;;13.33;11.23;;;4.00;99.90;;;;;;5038015;28;20177;-68
2022/04/04 04:59:48;;;;;;;15.20;12.20;;;4.00;99.90;;;;;;5035738;28;20542;-68
2022/04/04 05:02:14;;;;;;;15.90;12.33;;;3.90;99.90;;;;;;5036006;28;20426;-67
2022/04/04 05:04:39;;;;;;;18.50;12.10;;;4.00;99.90;;;;;;5036584;28;20866;-68
2022/04/04 05:07:07;;;;;;;16.07;12.07;;;4.00;99.90;;;;;;5036005;28;20488;-68
2022/04/04 05:09:33;;;;;;;17.70;11.77;;;3.90;99.90;;;;;;5034719;28;20237;-68
2022/04/04 05:11:58;;;;;;;16.10;11.63;;;4.00;99.90;;;;;;5035559;28;20408;-67
2022/04/04 05:14:24;;;;;;;16.00;13.47;;;3.90;99.90;;;;;;5035820;28;20503;-68
2022/04/04 05:16:49;;;;;;;15.37;10.77;;;3.90;99.90;;;;;;5035387;28;20168;-67
2022/04/04 05:19:22;;;;;;;14.60;11.80;;;3.90;99.90;;;;;;5035167;28;20287;-68
2022/04/04 05:21:49;;;;;;;17.20;12.00;;;3.90;99.90;;;;;;5017322;28;20176;-69
2022/04/04 05:24:15;;;;;;;15.80;11.47;;;3.90;99.90;;;;;;5034526;28;20562;-67
2022/04/04 05:26:41;;;;;;;15.50;11.87;;;3.90;99.90;;;;;;5028580;28;20500;-67
2022/04/04 05:29:07;;;;;;;13.13;10.60;;;3.90;99.90;;;;;;5031235;28;21118;-69
2022/04/04 05:31:34;;;;;;;18.67;12.33;;;3.90;99.90;;;;;;5032894;28;20613;-67
2022/04/04 05:34:01;;;;;;;16.83;12.03;;;3.90;99.90;;;;;;5014931;28;20829;-67
2022/04/04 05:36:27;;;;;;;17.03;11.83;;;3.90;99.90;;;;;;5034189;28;20485;-67
2022/04/04 05:38:53;;;;;;;15.93;11.53;;;3.90;99.90;;;;;;5034104;28;20460;-67
2022/04/04 05:41:19;;;;;;;17.70;12.50;;;4.00;99.90;;;;;;5030362;28;20219;-68
2022/04/04 05:43:46;;;;;;;15.63;11.90;;;3.90;99.90;;;;;;5014783;28;20437;-68
2022/04/04 05:46:13;;;;;;;17.30;11.60;;;3.90;99.90;;;;;;5033142;28;20511;-67
2022/04/04 05:48:38;;;;;;;15.13;11.37;;;3.90;99.90;;;;;;5032854;28;20506;-68
2022/04/04 05:51:04;;;;;;;19.30;12.17;;;4.00;99.90;;;;;;5032667;28;20443;-68
2022/04/04 05:53:30;;;;;;;17.43;11.97;;;4.00;99.90;;;;;;5033029;28;20266;-68
2022/04/04 05:55:55;;;;;;;16.93;10.70;;;4.10;99.90;;;;;;5032763;28;20195;-67
2022/04/04 05:58:21;;;;;;;12.30;10.00;;;4.20;99.90;;;;;;5032845;28;20213;-67
2022/04/04 06:00:46;;;;;;;14.33;10.63;;;4.30;99.90;;;;;;5033059;28;20212;-67
2022/04/04 06:03:12;;;;;;;17.27;10.60;;;4.30;99.90;;;;;;5014283;28;20246;-68
2022/04/04 06:05:38;;;;;;;16.10;10.70;;;4.30;99.90;;;;;;5033191;28;20202;-68
2022/04/04 06:08:04;;;;;;;15.07;10.50;;;4.40;99.90;;;;;;5032261;28;20226;-68
2022/04/04 06:10:29;;;;;;;13.27;9.60;;;4.40;99.90;;;;;;5032103;28;20268;-71
2022/04/04 06:12:55;;;;;;;11.80;9.30;;;4.50;99.90;;;;;;5030893;28;20830;-68
2022/04/04 06:15:20;;;;;;;17.50;10.23;;;4.60;99.90;;;;;;5032032;28;20197;-69
2022/04/04 06:17:47;;;;;;;14.80;10.73;;;4.60;99.90;;;;;;5032920;28;20202;-69
2022/04/04 06:20:13;;;;;;;11.10;9.17;;;4.70;99.90;;;;;;5033545;28;20214;-68
2022/04/04 06:22:39;;;;;;;15.60;9.20;;;4.80;99.90;;;;;;5033915;28;20437;-67
2022/04/04 06:25:07;;;;;;;12.00;9.33;;;4.80;99.90;;;;;;5033297;28;20764;-68
2022/04/04 06:27:33;;;;;;;9.57;8.40;;;4.70;99.90;;;;;;5033685;28;20988;-67
2022/04/04 06:29:59;;;;;;;14.00;8.73;;;4.80;99.90;;;;;;5035030;28;20488;-69
2022/04/04 06:32:25;;;;;;;9.60;8.40;;;4.70;99.90;;;;;;5038508;28;20173;-68
2022/04/04 06:34:51;;;;;;;13.77;9.03;;;4.80;99.90;;;;;;5035220;28;20429;-69
2022/04/04 06:37:16;;;;;;;10.80;8.97;;;4.90;99.90;;;;;;5034372;28;20444;-68
2022/04/04 06:39:42;;;;;;;12.63;8.33;;;4.80;99.90;;;;;;5034192;28;20256;-68
2022/04/04 06:42:08;;;;;;;13.73;8.87;;;4.90;99.90;;;;;;5034980;28;20202;-68
2022/04/04 06:44:34;;;;;;;9.70;7.77;;;4.90;99.90;;;;;;5034896;28;20439;-68
2022/04/04 06:46:59;;;;;;;10.30;7.87;;;4.80;99.90;;;;;;5034147;28;20182;-68
2022/04/04 06:49:25;;;;;;;10.67;8.40;;;4.80;99.90;;;;;;5033504;28;20222;-67
2022/04/04 06:51:51;;;;;;;15.20;8.97;;;4.80;99.90;;;;;;5034414;28;20182;-68
2022/04/04 06:54:18;;;;;;;10.40;8.40;;;4.90;99.90;;;;;;5033997;28;20779;-68
2022/04/04 06:56:45;;;;;;;10.47;8.60;;;5.00;99.90;;;;;;5033847;28;20960;-68
2022/04/04 06:59:11;;;;;;;11.47;8.30;;;4.90;99.90;;;;;;5033184;28;20954;-68
2022/04/04 07:01:37;;;;;;;12.00;7.43;;;4.90;99.90;;;;;;5033513;28;20416;-68
2022/04/04 07:04:03;;;;;;;11.43;8.33;;;4.90;99.90;;;;;;5034387;28;20416;-68
2022/04/04 07:06:29;;;;;;;9.83;8.83;;;5.00;99.90;;;;;;5034875;28;20252;-68
2022/04/04 07:08:54;;;;;;;12.60;7.47;;;5.10;99.90;;;;;;5033279;28;20465;-67
2022/04/04 07:11:20;;;;;;;12.93;8.30;;;5.20;99.90;;;;;;5033622;28;20259;-68
2022/04/04 07:13:49;;;;;;;13.40;8.10;;;5.30;99.90;;;;;;5034066;28;20167;-68
2022/04/04 07:16:15;;;;;;;8.50;7.17;;;5.30;99.90;;;;;;5033558;28;20406;-67
2022/04/04 07:18:41;;;;;;;9.73;6.83;;;5.30;99.90;;;;;;5034392;28;20432;-67
2022/04/04 07:21:06;;;;;;;10.00;7.47;;;5.40;99.90;;;;;;5037520;28;20424;-67
2022/04/04 07:23:32;;;;;;;11.37;6.97;;;5.50;99.90;;;;;;5038332;28;20413;-68
2022/04/04 07:25:57;;;;;;;12.23;7.37;;;5.70;99.90;;;;;;5037782;28;20182;-67
2022/04/04 07:28:23;;;;;;;10.10;7.60;;;5.70;99.90;;;;;;5019288;28;20194;-68
2022/04/04 07:30:50;;;;;;;9.57;6.57;;;5.80;99.90;;;;;;5018688;28;20237;-68
2022/04/04 07:33:17;;;;;;;9.90;7.20;;;5.80;99.90;;;;;;5019877;28;20413;-67
2022/04/04 07:35:43;;;;;;;9.27;7.17;;;5.70;99.90;;;;;;5037202;28;20420;-68
2022/04/04 07:38:09;;;;;;;8.93;6.63;;;5.80;99.90;;;;;;5036953;28;20417;-68
2022/04/04 07:40:35;;;;;;;8.20;7.37;;;5.90;99.90;;;;;;5037041;28;21025;-67
2022/04/04 07:43:01;;;;;;;9.40;7.40;;;5.90;99.90;;;;;;5038179;28;20517;-68
2022/04/04 07:45:29;;;;;;;8.50;7.60;;;6.00;99.90;;;;;;5038122;28;20175;-68
2022/04/04 07:47:55;;;;;;;10.37;7.07;;;6.10;99.90;;;;;;5037595;28;20259;-67
2022/04/04 07:50:21;;;;;;;8.93;7.07;;;6.20;99.90;;;;;;5035558;28;20516;-68
2022/04/04 07:52:46;;;;;;;8.53;7.37;;;6.30;99.90;;;;;;5036050;28;20266;-68
2022/04/04 07:55:12;;;;;;;11.70;8.30;;;6.30;99.90;;;;;;5036676;28;20182;-68
2022/04/04 07:57:39;;;;;;;9.93;7.50;;;6.10;99.90;;;;;;5036722;28;20409;-67
2022/04/04 08:00:07;;;;;;;10.20;7.40;;;6.20;99.90;;;;;;5035928;28;20214;-68
2022/04/04 08:02:33;;;;;;;7.97;6.17;;;6.30;99.90;;;;;;5018041;28;20966;-68
2022/04/04 08:04:58;;;;;;;9.87;7.30;;;6.20;99.90;;;;;;5036001;28;20409;-68
2022/04/04 08:07:24;;;;;;;10.57;7.80;;;6.20;99.90;;;;;;5035878;28;20426;-68
2022/04/04 08:09:49;;;;;;;7.73;6.93;;;6.20;99.90;;;;;;5035062;28;20230;-68
2022/04/04 08:12:15;;;;;;;7.77;6.93;;;6.20;99.90;;;;;;5036025;28;20179;-68
2022/04/04 08:14:41;;;;;;;8.90;7.23;;;6.30;99.90;;;;;;5036291;28;20257;-67
2022/04/04 08:17:08;;;;;;;8.47;7.47;;;6.40;99.90;;;;;;5036127;28;20583;-67
2022/04/04 08:19:35;;;;;;;8.40;7.20;;;6.40;99.90;;;;;;5035701;28;20240;-68
2022/04/04 08:22:01;;;;;;;8.20;7.03;;;6.50;99.80;;;;;;5034994;28;20410;-67
2022/04/04 08:24:27;;;;;;;8.07;7.27;;;6.50;99.90;;;;;;5035611;28;20433;-67
2022/04/04 08:26:53;;;;;;;7.80;6.50;;;6.60;99.80;;;;;;5017579;28;20479;-67
2022/04/04 08:29:19;;;;;;;7.47;6.37;;;6.70;99.70;;;;;;5034612;28;20202;-69
2022/04/04 08:31:45;;;;;;;10.07;6.83;;;6.80;99.50;;;;;;5034157;28;20981;-67
2022/04/04 08:34:10;;;;;;;7.00;6.30;;;6.80;99.40;;;;;;5035365;28;20209;-68
2022/04/04 08:36:36;;;;;;;7.70;7.00;;;7.00;99.20;;;;;;5035201;28;20675;-68
2022/04/04 08:39:03;;;;;;;7.17;6.47;;;7.00;98.70;;;;;;5036281;28;20200;-68
2022/04/04 08:41:32;;;;;;;6.47;5.80;;;7.10;98.60;;;;;;5036217;28;20467;-68
2022/04/04 08:44:01;;;;;;;11.63;7.80;;;7.20;98.30;;;;;;5036144;28;20414;-68
2022/04/04 08:46:28;;;;;;;7.00;6.30;;;7.20;98.20;;;;;;5036565;28;20544;-68
2022/04/04 08:48:57;;;;;;;11.47;6.80;;;7.20;97.90;;;;;;5035988;28;20536;-67
2022/04/04 08:51:23;;;;;;;7.00;6.03;;;7.20;98.00;;;;;;5018332;28;20449;-68
2022/04/04 08:53:49;;;;;;;8.90;6.13;;;7.30;97.90;;;;;;5036309;28;20402;-67
2022/04/04 08:56:14;;;;;;;6.57;5.87;;;7.30;97.70;;;;;;5018207;28;20199;-67
2022/04/04 08:58:40;;;;;;;7.37;6.20;;;7.30;97.60;;;;;;5035905;28;20448;-67
2022/04/04 09:01:06;;;;;;;7.40;6.30;;;7.40;97.40;;;;;;5035638;28;20353;-68
2022/04/04 09:03:32;;;;;;;6.53;5.90;;;7.40;97.40;;;;;;5035735;28;20275;-68
2022/04/04 09:06:00;;;;;;;10.57;7.37;;;7.30;97.60;;;;;;5035487;28;20182;-67
2022/04/04 09:08:28;;;;;;;11.40;6.53;;;7.30;97.60;;;;;;5036114;28;20548;-68
2022/04/04 09:11:00;;;;;;;7.20;6.50;;;7.30;97.90;;;;;;5034735;28;20407;-67
2022/04/04 09:13:27;;;;;;;7.23;6.43;;;7.30;97.40;;;;;;5035310;28;20398;-68
2022/04/04 09:15:58;;;;;;;8.33;6.53;;;7.40;97.40;;;;;;5040886;28;20494;-68
2022/04/04 09:18:42;;;;;;;7.00;6.30;;;7.50;97.20;;;;;;5036366;28;20410;-68
2022/04/04 09:21:26;;;;;;;8.50;6.80;;;7.60;96.70;;;;;;5035888;28;20741;-68
2022/04/04 09:24:07;;;;;;;5.97;5.47;;;7.70;96.20;;;;;;5036660;28;20421;-69
2022/04/04 09:26:42;;;;;;;10.53;6.60;;;7.80;96.00;;;;;;5018102;28;20440;-68
2022/04/04 09:29:16;;;;;;;6.30;5.50;;;7.80;95.60;;;;;;5034827;28;20502;-68
2022/04/04 09:31:59;;;;;;;7.87;6.37;;;7.90;95.70;;;;;;5034568;28;20431;-71
2022/04/04 09:34:24;;;;;;;6.83;6.20;;;7.90;95.50;;;;;;5035192;28;20428;-69
2022/04/04 09:36:50;;;;;;;8.43;6.30;;;7.90;95.20;;;;;;5034688;28;21076;-68
2022/04/04 09:39:16;;;;;;;8.60;7.80;;;8.00;95.10;;;;;;5034869;28;20287;-69
2022/04/04 09:41:42;;;;;;;7.07;6.00;;;7.90;95.00;;;;;;5033787;28;20213;-68
2022/04/04 09:44:09;;;;;;;8.37;5.70;;;7.70;95.00;;;;;;5034340;28;20418;-69
2022/04/04 09:46:42;;;;;;;7.00;6.30;;;7.70;95.20;;;;;;5035555;28;20456;-69
2022/04/04 09:49:13;;;;;;;6.60;5.93;;;7.70;95.40;;;;;;5034621;28;20471;-69
2022/04/04 09:51:51;;;;;;;6.70;6.10;;;7.70;95.30;;;;;;5034177;28;20421;-68
2022/04/04 09:54:23;;;;;;;6.77;6.07;;;7.70;95.50;;;;;;5034857;28;20402;-69
2022/04/04 09:56:53;;;;;;;7.10;6.33;;;7.70;95.70;;;;;;5034639;28;20417;-69
2022/04/04 09:59:19;;;;;;;9.33;5.70;;;7.70;96.10;;;;;;5034157;28;20516;-69
2022/04/04 10:01:46;;;;;;;8.50;6.53;;;7.80;96.50;;;;;;5034985;28;20460;-69
2022/04/04 10:04:12;;;;;;;9.17;7.20;;;7.80;97.00;;;;;;5034394;28;20453;-69
2022/04/04 10:06:43;;;;;;;7.77;6.40;;;7.80;97.50;;;;;;5034378;28;20419;-68
2022/04/04 10:09:09;;;;;;;7.97;6.10;;;7.60;98.00;;;;;;5035924;28;20566;-68
2022/04/04 10:11:38;;;;;;;7.70;6.87;;;7.40;99.10;;;;;;5034716;28;20416;-69
2022/04/04 10:14:04;;;;;;;10.47;6.47;;;7.40;99.50;;;;;;5015822;28;20783;-69
2022/04/04 10:16:31;;;;;;;7.17;6.57;;;7.40;99.90;;;;;;5033867;28;20403;-68
2022/04/04 10:19:00;;;;;;;9.33;7.07;;;7.30;99.90;;;;;;5015871;28;20461;-68
2022/04/04 10:21:27;;;;;;;6.50;5.90;;;7.20;99.90;;;;;;5016452;28;20425;-68
2022/04/04 10:23:58;;;;;;;7.60;6.90;;;7.10;99.90;;;;;;5034519;28;20521;-68
2022/04/04 10:26:34;;;;;;;7.93;6.47;;;7.10;99.90;;;;;;5034113;28;20767;-68
2022/04/04 10:29:10;;;;;;;7.93;6.80;;;7.10;99.90;;;;;;5035739;28;20465;-68
2022/04/04 10:31:44;;;;;;;9.57;7.60;;;7.00;99.90;;;;;;5034172;28;20418;-69
2022/04/04 10:34:13;;;;;;;7.63;6.90;;;7.00;99.90;;;;;;5034406;28;20960;-68
2022/04/04 10:36:54;;;;;;;7.30;6.60;;;6.90;99.90;;;;;;5034590;28;20467;-68
2022/04/04 10:39:44;;;;;;;8.53;6.73;;;6.90;99.90;;;;;;5016550;28;20947;-68
2022/04/04 10:42:31;;;;;;;9.10;8.20;;;6.80;99.90;;;;;;5035112;28;20488;-68
2022/04/04 10:45:25;;;;;;;8.10;7.30;;;6.70;99.90;;;;;;5035882;28;20849;-68
2022/04/04 10:48:06;;;;;;;8.53;7.43;;;6.70;99.90;;;;;;5032300;28;20433;-68
2022/04/04 10:50:33;;;;;;;8.77;7.77;;;6.60;99.90;;;;;;5033917;28;20520;-68
2022/04/04 10:53:03;;;;;;;9.63;7.63;;;6.70;99.90;;;;;;5034164;28;20413;-68
2022/04/04 10:55:38;;;;;;;10.93;8.53;;;6.70;99.90;;;;;;5038312;28;20405;-69
2022/04/04 10:58:27;;;;;;;11.57;8.30;;;6.70;99.90;;;;;;5019669;28;20413;-68
2022/04/04 11:00:57;;;;;;;17.40;8.70;;;6.60;99.90;;;;;;5036282;28;20451;-67
2022/04/04 11:03:34;;;;;;;8.93;7.23;;;6.70;99.90;;;;;;5037237;28;20413;-69
2022/04/04 11:08:58;;;;;;;9.97;7.70;;;6.70;99.90;;;;;;5036988;28;20471;-69
2022/04/04 11:11:41;;;;;;;8.60;7.70;;;6.80;99.90;;;;;;5038022;28;20511;-68
2022/04/04 11:14:07;;;;;;;11.70;8.50;;;6.90;99.90;;;;;;5037743;28;20420;-68
2022/04/04 11:17:17;;;;;;;13.70;8.17;;;6.90;99.90;;;;;;5037194;28;21002;-68
2022/04/04 11:19:46;;;;;;;13.00;9.47;;;6.90;99.90;;;;;;5036557;28;20433;-68
2022/04/04 11:22:20;;;;;;;10.43;9.00;;;6.80;99.90;;;;;;5037035;28;20394;-68
2022/04/04 11:24:55;;;;;;;10.80;8.43;;;6.70;99.90;;;;;;5030803;28;20457;-69
2022/04/04 11:27:23;;;;;;;9.83;8.70;;;6.70;99.90;;;;;;5016004;28;20441;-68
2022/04/04 11:29:49;;;;;;;10.83;9.30;;;6.70;99.90;;;;;;5021901;28;20476;-68
2022/04/04 11:32:22;;;;;;;12.13;9.37;;;6.60;99.90;;;;;;5038481;28;20756;-69
2022/04/04 11:34:48;;;;;;;10.97;8.60;;;6.50;99.90;;;;;;5038753;28;20737;-69
2022/04/04 11:37:17;;;;;;;11.13;9.10;;;6.50;99.90;;;;;;5018331;28;20465;-69
2022/04/04 11:39:47;;;;;;;11.67;10.00;;;6.50;99.90;;;;;;5038036;28;20982;-69
2022/04/04 11:42:14;;;;;;;12.03;9.60;;;6.40;99.90;;;;;;5037312;28;20518;-68
2022/04/04 11:44:48;;;;;;;10.67;9.57;;;6.30;99.90;;;;;;5036021;28;20478;-68
2022/04/04 11:47:16;;;;;;;10.57;9.50;;;6.30;99.90;;;;;;5057274;28;20408;-68
2022/04/04 11:49:43;;;;;;;14.20;11.10;;;6.10;99.90;;;;;;5057124;28;20460;-67
2022/04/04 11:52:09;;;;;;;11.13;9.97;;;6.10;99.90;;;;;;5043350;28;20470;-68
2022/04/04 11:54:50;;;;;;;12.97;10.40;;;5.90;99.90;;;;;;5036530;28;20429;-68
2022/04/04 11:57:17;;;;;;;11.07;9.60;;;5.80;99.90;;;;;;5037820;28;20439;-68
2022/04/04 11:59:45;;;;;;;13.70;11.70;;;5.70;99.90;;;;;;5036810;28;20468;-68
2022/04/04 12:02:13;;;;;;;13.43;11.83;;;5.60;99.90;;;;;;5039340;28;20647;-68
2022/04/04 12:04:40;;;;;;;13.27;11.07;;;5.60;99.90;;;;;;5036237;28;20471;-69
2022/04/04 12:07:07;;;;;;;13.00;11.67;;;5.50;99.90;;;;;;5037162;28;20413;-67
2022/04/04 12:09:36;;;;;;;12.97;11.13;;;5.50;99.90;;;;;;5035751;28;20544;-68
2022/04/04 12:12:10;;;;;;;23.33;13.03;;;5.40;99.90;;;;;;5036943;28;20467;-67
2022/04/04 12:14:37;;;;;;;13.37;11.87;;;5.40;99.90;;;;;;5038785;28;20425;-67
2022/04/04 12:17:07;;;;;;;16.10;11.17;;;5.40;99.90;;;;;;5021735;28;20737;-66
2022/04/04 12:19:44;;;;;;;11.87;10.67;;;5.40;99.90;;;;;;5038668;28;20814;-67
2022/04/04 12:24:55;;;;;;;12.30;10.60;;;5.50;99.90;;;;;;5020105;28;20906;-68
2022/04/04 12:27:21;;;;;;;12.13;10.90;;;5.40;99.90;;;;;;5019876;28;20403;-67
2022/04/04 12:29:47;;;;;;;12.80;10.37;;;5.40;99.90;;;;;;5018694;28;20476;-68
2022/04/04 12:32:21;;;;;;;12.87;10.27;;;5.40;99.90;;;;;;5035359;28;20612;-67
2022/04/04 12:34:57;;;;;;;16.73;9.57;;;5.40;99.90;;;;;;5018124;28;20150;-66
2022/04/04 12:37:41;;;;;;;16.27;11.50;;;5.50;99.90;;;;;;5033509;28;20450;-68
2022/04/04 12:40:12;;;;;;;13.37;10.57;;;5.60;99.90;;;;;;5033929;28;20461;-67
2022/04/04 12:42:38;;;;;;;13.13;11.13;;;5.90;99.90;;;;;;5036147;28;20430;-68
2022/04/04 12:45:04;;;;;;;13.07;11.57;;;5.80;99.90;;;;;;5036511;28;20428;-67
2022/04/04 12:47:29;;;;;;;12.17;10.83;;;5.70;99.90;;;;;;5037055;28;20183;-68
2022/04/04 12:50:14;;;;;;;13.60;11.40;;;5.60;99.90;;;;;;5035657;28;20485;-67
2022/04/04 12:53:01;;;;;;;12.40;11.20;;;5.50;99.90;;;;;;5036840;28;20174;-68
2022/04/04 12:55:27;;;;;;;12.93;11.47;;;5.50;99.90;;;;;;5036874;28;20754;-67
2022/04/04 12:57:54;;;;;;;14.80;11.10;;;5.50;99.90;;;;;;5036349;28;20507;-68